createdAt,value
2023-01-30T00:00:36.056Z,99477.69
2023-01-30T00:03:05.158Z,99513.03
2023-01-30T00:05:31.684Z,99491.47
2023-01-30T00:07:58.307Z,99496.66
2023-01-30T00:10:26.079Z,99500.09
2023-01-30T00:12:52.708Z,99492.38
2023-01-30T00:15:19.175Z,99487.13
2023-01-30T00:17:45.620Z,99482.81
2023-01-30T00:20:13.635Z,99482.88
2023-01-30T00:22:49.249Z,99483.72
2023-01-30T00:25:19.156Z,99478.56
2023-01-30T00:27:45.653Z,99464.78
2023-01-30T00:30:12.466Z,99468.22
2023-01-30T00:32:39.097Z,99477.69
2023-01-30T00:35:05.731Z,99463.06
2023-01-30T00:37:32.611Z,99455.31
2023-01-30T00:39:59.050Z,99452.72
2023-01-30T00:42:25.539Z,99441.53
2023-01-30T00:44:51.993Z,99442.41
2023-01-30T00:47:18.956Z,99426.03
2023-01-30T00:49:45.564Z,99432.94
2023-01-30T00:52:12.094Z,99432.03
2023-01-30T00:54:38.639Z,99419.09
2023-01-30T00:57:05.148Z,99423.41
2023-01-30T00:59:31.563Z,99402.78
2023-01-30T01:01:58.138Z,99411.38
2023-01-30T01:04:24.734Z,99409.66
2023-01-30T01:06:52.169Z,99402.78
2023-01-30T01:09:18.598Z,99398.47
2023-01-30T01:11:45.069Z,99392.47
2023-01-30T01:14:14.076Z,99389.00
2023-01-30T01:16:40.936Z,99378.66
2023-01-30T01:19:07.433Z,99365.75
2023-01-30T01:21:34.144Z,99377.84
2023-01-30T01:24:00.585Z,99370.91
2023-01-30T01:26:27.053Z,99370.97
2023-01-30T01:28:53.798Z,99369.22
2023-01-30T01:31:20.265Z,99373.53
2023-01-30T01:33:46.725Z,99377.81
2023-01-30T01:36:20.088Z,99378.72
2023-01-30T01:38:56.497Z,99372.66
2023-01-30T01:41:22.993Z,99364.94
2023-01-30T01:43:49.585Z,99364.06
2023-01-30T01:46:16.585Z,99362.34
2023-01-30T01:48:43.039Z,99350.25
2023-01-30T01:51:09.969Z,99348.53
2023-01-30T01:53:36.358Z,99350.28
2023-01-30T01:56:03.040Z,99334.81
2023-01-30T01:58:29.556Z,99321.84
2023-01-30T02:00:56.139Z,99323.59
2023-01-30T02:03:22.774Z,99322.63
2023-01-30T02:05:49.175Z,99332.19
2023-01-30T02:08:15.663Z,99320.09
2023-01-30T02:10:42.049Z,99314.84
2023-01-30T02:13:08.532Z,99313.09
2023-01-30T02:15:35.005Z,99326.13
2023-01-30T02:18:01.409Z,99307.13
2023-01-30T02:20:27.801Z,99306.34
2023-01-30T02:22:54.267Z,99314.16
2023-01-30T02:25:21.284Z,99290.94
2023-01-30T02:27:48.020Z,99291.72
2023-01-30T02:30:14.424Z,99278.78
2023-01-30T02:32:40.911Z,99302.91
2023-01-30T02:35:07.372Z,99277.81
2023-01-30T02:37:33.784Z,99284.81
2023-01-30T02:40:00.214Z,99288.22
2023-01-30T02:42:26.646Z,99290.03
2023-01-30T02:44:53.283Z,99281.38
2023-01-30T02:47:19.776Z,99269.19
2023-01-30T02:49:46.241Z,99253.75
2023-01-30T02:52:12.834Z,99259.72
2023-01-30T02:54:39.382Z,99262.31
2023-01-30T02:57:06.031Z,99251.94
2023-01-30T02:59:32.547Z,99251.19
2023-01-30T03:01:59.143Z,99240.78
2023-01-30T03:04:25.611Z,99231.28
2023-01-30T03:06:52.064Z,99240.06
2023-01-30T03:09:18.681Z,99231.38
2023-01-30T03:11:45.487Z,99221.88
2023-01-30T03:14:11.891Z,99229.44
2023-01-30T03:16:38.643Z,99221.81
2023-01-30T03:19:05.119Z,99223.47
2023-01-30T03:21:31.511Z,99233.84
2023-01-30T03:24:00.101Z,99211.47
2023-01-30T03:26:26.535Z,99222.69
2023-01-30T03:28:52.990Z,99220.00
2023-01-30T03:31:19.501Z,99224.16
2023-01-30T03:33:46.059Z,99203.56
2023-01-30T03:36:12.789Z,99199.34
2023-01-30T03:38:39.207Z,99197.56
2023-01-30T03:41:05.740Z,99182.25
2023-01-30T03:43:32.169Z,99176.16
2023-01-30T03:45:58.715Z,99170.22
2023-01-30T03:48:25.178Z,99185.69
2023-01-30T03:50:51.640Z,99164.97
2023-01-30T03:53:18.504Z,99166.81
2023-01-30T03:55:44.940Z,99164.19
2023-01-30T03:58:11.400Z,99156.47
2023-01-30T04:00:37.802Z,99161.69
2023-01-30T04:03:04.190Z,99171.16
2023-01-30T04:05:30.884Z,99176.31
2023-01-30T04:07:57.476Z,99172.03
2023-01-30T04:10:24.025Z,99165.25
2023-01-30T04:12:50.389Z,99158.31
2023-01-30T04:15:17.188Z,99167.66
2023-01-30T04:17:44.231Z,99147.97
2023-01-30T04:20:10.850Z,99145.31
2023-01-30T04:22:37.277Z,99142.72
2023-01-30T04:25:03.898Z,99134.81
2023-01-30T04:27:30.342Z,99131.56
2023-01-30T04:29:56.727Z,99127.22
2023-01-30T04:32:23.163Z,99134.78
2023-01-30T04:34:49.758Z,99124.72
2023-01-30T04:37:16.232Z,99134.31
2023-01-30T04:39:42.658Z,99115.94
2023-01-30T04:42:09.076Z,99115.31
2023-01-30T04:44:35.473Z,99126.63
2023-01-30T04:47:01.862Z,99163.53
2023-01-30T04:49:28.511Z,99146.34
2023-01-30T04:51:54.892Z,99137.69
2023-01-30T04:54:21.439Z,99131.53
2023-01-30T04:56:47.921Z,99155.81
2023-01-30T04:59:14.396Z,99118.84
2023-01-30T05:01:41.193Z,99131.75
2023-01-30T05:04:07.635Z,99130.81
2023-01-30T05:06:36.157Z,99135.97
2023-01-30T05:09:02.727Z,99120.34
2023-01-30T05:11:29.215Z,99135.00
2023-01-30T05:13:55.873Z,99126.38
2023-01-30T05:16:22.353Z,99116.22
2023-01-30T05:18:48.995Z,99120.44
2023-01-30T05:21:15.384Z,99105.88
2023-01-30T05:23:42.559Z,99115.22
2023-01-30T05:26:09.087Z,99124.59
2023-01-30T05:28:38.732Z,99110.91
2023-01-30T05:31:05.640Z,99098.78
2023-01-30T05:33:34.227Z,99100.59
2023-01-30T05:36:00.760Z,99092.84
2023-01-30T05:38:27.440Z,99089.34
2023-01-30T05:40:54.216Z,99099.72
2023-01-30T05:43:21.054Z,99108.34
2023-01-30T05:45:47.974Z,99107.44
2023-01-30T05:48:14.369Z,99110.97
2023-01-30T05:50:40.943Z,99109.28
2023-01-30T05:53:07.544Z,99109.28
2023-01-30T05:55:36.338Z,99117.84
2023-01-30T05:58:02.776Z,99089.47
2023-01-30T06:00:29.254Z,99097.81
2023-01-30T06:02:56.070Z,99094.25
2023-01-30T06:05:22.637Z,99092.97
2023-01-30T06:07:49.072Z,99103.97
2023-01-30T06:10:15.759Z,99068.69
2023-01-30T06:12:42.170Z,99094.59
2023-01-30T06:15:08.701Z,99142.72
2023-01-30T06:17:35.178Z,99125.66
2023-01-30T06:20:01.669Z,99122.94
2023-01-30T06:22:28.201Z,99110.81
2023-01-30T06:24:54.744Z,99107.19
2023-01-30T06:27:21.254Z,99102.81
2023-01-30T06:29:47.972Z,99083.13
2023-01-30T06:32:14.373Z,99089.19
2023-01-30T06:34:40.895Z,99088.38
2023-01-30T06:37:07.623Z,99092.59
2023-01-30T06:39:34.069Z,99066.97
2023-01-30T06:42:00.494Z,99059.03
2023-01-30T06:44:27.623Z,99047.91
2023-01-30T06:46:54.217Z,99038.16
2023-01-30T06:49:20.728Z,99061.31
2023-01-30T06:51:47.256Z,99042.19
2023-01-30T06:54:13.863Z,99043.56
2023-01-30T06:56:40.319Z,99043.00
2023-01-30T06:59:06.686Z,99042.41
2023-01-30T07:01:33.425Z,99031.28
2023-01-30T07:04:00.002Z,99037.00
2023-01-30T07:06:29.001Z,99033.47
2023-01-30T07:08:56.131Z,99021.34
2023-01-30T07:11:22.759Z,99023.09
2023-01-30T07:13:49.208Z,99022.53
2023-01-30T07:16:15.797Z,99010.63
2023-01-30T07:18:44.907Z,99033.50
2023-01-30T07:21:11.529Z,99047.94
2023-01-30T07:23:39.037Z,99041.00
2023-01-30T07:26:05.607Z,99058.38
2023-01-30T07:28:32.154Z,99022.56
2023-01-30T07:30:58.573Z,99044.97
2023-01-30T07:33:25.422Z,99051.03
2023-01-30T07:35:53.513Z,99059.91
2023-01-30T07:38:20.445Z,99054.44
2023-01-30T07:40:47.184Z,99069.19
2023-01-30T07:43:13.872Z,99083.84
2023-01-30T07:45:40.400Z,99052.09
2023-01-30T07:48:06.835Z,99053.91
2023-01-30T07:50:33.759Z,99052.81
2023-01-30T07:53:00.237Z,99028.28
2023-01-30T07:55:26.624Z,98988.13
2023-01-30T07:57:53.251Z,98986.44
2023-01-30T08:00:20.286Z,98969.97
2023-01-30T08:02:46.991Z,98993.94
2023-01-30T08:05:13.734Z,98984.97
2023-01-30T08:07:40.350Z,98998.91
2023-01-30T08:10:06.730Z,98981.47
2023-01-30T08:12:33.447Z,98984.75
2023-01-30T08:15:00.215Z,98990.00
2023-01-30T08:17:26.857Z,99006.84
2023-01-30T08:19:54.011Z,98979.38
2023-01-30T08:22:20.749Z,98987.25
2023-01-30T08:24:47.175Z,98992.59
2023-01-30T08:27:14.017Z,98970.03
2023-01-30T08:29:40.498Z,98964.78
2023-01-30T08:32:07.137Z,98979.63
2023-01-30T08:34:34.144Z,98948.06
2023-01-30T08:37:00.652Z,98931.09
2023-01-30T08:39:27.050Z,98929.69
2023-01-30T08:41:53.478Z,98902.06
2023-01-30T08:44:20.830Z,98904.38
2023-01-30T08:46:47.247Z,98910.28
2023-01-30T08:49:13.709Z,98900.25
2023-01-30T08:51:40.200Z,98884.72
2023-01-30T08:54:06.729Z,98929.28
2023-01-30T08:56:33.236Z,98876.19
2023-01-30T08:58:59.990Z,98898.56
2023-01-30T09:01:26.560Z,98905.97
2023-01-30T09:03:53.110Z,98893.22
2023-01-30T09:06:19.728Z,98901.81
2023-01-30T09:08:46.621Z,98889.00
2023-01-30T09:11:13.105Z,98875.25
2023-01-30T09:13:39.552Z,98912.53
2023-01-30T09:16:06.430Z,98889.31
2023-01-30T09:18:32.928Z,98899.69
2023-01-30T09:20:59.371Z,98913.97
2023-01-30T09:23:25.815Z,98860.84
2023-01-30T09:25:52.355Z,98865.03
2023-01-30T09:28:18.936Z,98877.06
2023-01-30T09:30:45.453Z,98881.69
2023-01-30T09:33:11.855Z,98897.78
2023-01-30T09:35:38.485Z,98897.69
2023-01-30T09:38:05.322Z,98915.66
2023-01-30T09:40:31.734Z,98890.19
2023-01-30T09:42:58.369Z,98888.97
2023-01-30T09:45:26.399Z,98852.97
2023-01-30T09:47:52.806Z,98865.00
2023-01-30T09:50:20.031Z,98893.88
2023-01-30T09:52:47.096Z,98867.25
2023-01-30T09:55:13.517Z,98860.25
2023-01-30T09:57:40.031Z,98831.19
2023-01-30T10:00:06.519Z,98842.25
2023-01-30T10:02:35.188Z,98822.63
2023-01-30T10:05:03.022Z,98841.19
2023-01-30T10:07:29.738Z,98832.28
2023-01-30T10:09:56.407Z,98828.31
2023-01-30T10:12:23.873Z,98811.69
2023-01-30T10:14:50.852Z,98795.97
2023-01-30T10:17:17.539Z,98807.34
2023-01-30T10:19:43.953Z,98796.38
2023-01-30T10:22:10.484Z,98794.44
2023-01-30T10:24:37.392Z,98779.66
2023-01-30T10:27:04.929Z,98816.31
2023-01-30T10:29:33.897Z,98789.34
2023-01-30T10:32:00.370Z,98793.81
2023-01-30T10:34:26.826Z,98779.34
2023-01-30T10:36:53.364Z,98798.03
2023-01-30T10:39:20.090Z,98790.59
2023-01-30T10:41:46.534Z,98782.94
2023-01-30T10:44:13.204Z,98786.78
2023-01-30T10:46:39.794Z,98788.53
2023-01-30T10:49:06.533Z,98792.78
2023-01-30T10:51:33.830Z,98776.94
2023-01-30T10:54:00.336Z,98758.22
2023-01-30T10:56:26.754Z,98763.66
2023-01-30T10:58:53.283Z,98757.44
2023-01-30T11:01:19.788Z,98740.97
2023-01-30T11:03:47.189Z,98745.13
2023-01-30T11:06:15.323Z,98753.66
2023-01-30T11:08:41.880Z,98749.53
2023-01-30T11:11:08.302Z,98741.00
2023-01-30T11:13:34.788Z,98745.66
2023-01-30T11:16:01.317Z,98732.50
2023-01-30T11:19:17.191Z,98717.31
2023-01-30T11:21:14.899Z,98735.78
2023-01-30T11:23:43.708Z,98694.88
2023-01-30T11:26:11.854Z,98695.78
2023-01-30T11:28:38.572Z,98688.38
2023-01-30T11:31:05.081Z,98708.41
2023-01-30T11:33:31.519Z,98654.28
2023-01-30T11:35:58.116Z,98704.69
2023-01-30T11:38:24.747Z,98655.91
2023-01-30T11:40:51.365Z,98650.03
2023-01-30T11:43:18.812Z,98634.16
2023-01-30T11:45:45.305Z,98632.78
2023-01-30T11:48:23.533Z,98620.28
2023-01-30T11:50:58.136Z,98611.88
2023-01-30T11:53:24.759Z,98567.00
2023-01-30T11:56:03.034Z,98609.50
2023-01-30T11:58:32.496Z,98598.63
2023-01-30T12:00:59.077Z,98582.69
2023-01-30T12:03:25.492Z,98598.38
2023-01-30T12:05:51.955Z,98579.88
2023-01-30T12:08:22.516Z,98574.38
2023-01-30T12:10:54.284Z,98578.56
2023-01-30T12:13:22.298Z,98581.59
2023-01-30T12:15:48.781Z,98586.78
2023-01-30T12:18:15.591Z,98576.13
2023-01-30T12:20:41.973Z,98606.31
2023-01-30T12:23:08.439Z,98588.09
2023-01-30T12:25:34.961Z,98619.75
2023-01-30T12:28:01.648Z,98614.34
2023-01-30T12:30:30.594Z,98589.88
2023-01-30T12:32:57.181Z,98599.00
2023-01-30T12:35:23.775Z,98608.22
2023-01-30T12:37:50.323Z,98602.63
2023-01-30T12:40:16.922Z,98618.47
2023-01-30T12:42:43.588Z,98598.34
2023-01-30T12:45:10.112Z,98573.19
2023-01-30T12:47:36.626Z,98598.41
2023-01-30T12:50:03.085Z,98601.88
2023-01-30T12:52:29.573Z,98619.34
2023-01-30T12:54:56.205Z,98603.09
2023-01-30T12:57:23.271Z,98608.16
2023-01-30T12:59:49.671Z,98581.47
2023-01-30T13:02:16.481Z,98594.53
2023-01-30T13:05:01.744Z,98588.31
2023-01-30T13:07:29.772Z,98614.44
2023-01-30T13:09:56.261Z,98589.38
2023-01-30T13:12:22.743Z,98593.09
2023-01-30T13:14:49.365Z,98600.25
2023-01-30T13:17:16.233Z,98600.97
2023-01-30T13:19:42.631Z,98626.88
2023-01-30T13:22:09.505Z,98593.16
2023-01-30T13:24:36.114Z,98584.88
2023-01-30T13:27:03.336Z,98604.72
2023-01-30T13:29:29.836Z,98596.06
2023-01-30T13:31:56.714Z,98605.00
2023-01-30T13:34:23.281Z,98614.34
2023-01-30T13:36:49.770Z,98610.25
2023-01-30T13:41:42.648Z,98594.13
2023-01-30T13:44:09.128Z,98612.28
2023-01-30T13:46:35.838Z,98604.75
2023-01-30T13:49:04.677Z,98598.75
2023-01-30T13:51:31.152Z,98602.38
2023-01-30T13:53:58.095Z,98615.59
2023-01-30T13:56:40.772Z,98596.66
2023-01-30T13:59:08.853Z,98611.06
2023-01-30T14:01:35.463Z,98590.25
2023-01-30T14:04:01.926Z,98587.13
2023-01-30T14:06:28.610Z,98598.13
2023-01-30T14:08:55.098Z,98571.44
2023-01-30T14:11:21.682Z,98588.09
2023-01-30T14:13:48.561Z,98576.75
2023-01-30T14:16:15.084Z,98572.41
2023-01-30T14:18:41.524Z,98553.88
2023-01-30T14:21:08.176Z,98539.16
2023-01-30T14:23:34.813Z,98557.63
2023-01-30T14:26:01.222Z,98541.88
2023-01-30T14:28:27.671Z,98582.78
2023-01-30T14:30:54.211Z,98577.06
2023-01-30T14:33:20.878Z,98551.78
2023-01-30T14:35:47.451Z,98560.84
2023-01-30T14:38:13.937Z,98549.25
2023-01-30T14:40:40.447Z,98545.00
2023-01-30T14:43:06.952Z,98564.75
2023-01-30T14:45:33.634Z,98577.63
2023-01-30T14:48:01.277Z,98574.09
2023-01-30T14:50:28.029Z,98574.38
2023-01-30T14:52:54.852Z,98591.09
2023-01-30T14:55:21.814Z,98607.78
2023-01-30T14:57:48.470Z,98613.81
2023-01-30T15:00:18.004Z,98598.97
2023-01-30T15:02:46.143Z,98621.72
2023-01-30T15:05:13.128Z,98628.56
2023-01-30T15:07:41.944Z,98622.78
2023-01-30T15:10:08.333Z,98612.81
2023-01-30T15:12:36.340Z,98612.88
2023-01-30T15:15:02.832Z,98620.69
2023-01-30T15:17:29.321Z,98621.13
2023-01-30T15:19:55.924Z,98638.50
2023-01-30T15:22:22.765Z,98622.91
2023-01-30T15:24:49.655Z,98635.00
2023-01-30T15:27:16.106Z,98620.72
2023-01-30T15:29:42.607Z,98631.13
2023-01-30T15:32:11.576Z,98629.19
2023-01-30T15:34:38.704Z,98644.72
2023-01-30T15:37:06.164Z,98645.97
2023-01-30T15:39:32.808Z,98655.47
2023-01-30T15:42:00.174Z,98647.94
2023-01-30T15:44:26.683Z,98647.19
2023-01-30T15:46:53.820Z,98662.25
2023-01-30T15:49:20.395Z,98675.28
2023-01-30T15:51:47.073Z,98675.47
2023-01-30T15:54:13.478Z,98680.00
2023-01-30T15:56:39.980Z,98689.66
2023-01-30T15:59:06.556Z,98691.03
2023-01-30T16:01:33.409Z,98698.91
2023-01-30T16:03:59.995Z,98719.09
2023-01-30T16:06:26.471Z,98711.06
2023-01-30T16:08:52.906Z,98710.78
2023-01-30T16:11:19.383Z,98713.00
2023-01-30T16:13:46.141Z,98726.28
2023-01-30T16:16:12.958Z,98724.16
2023-01-30T16:18:39.957Z,98722.13
2023-01-30T16:21:06.478Z,98729.75
2023-01-30T16:23:34.022Z,98732.53
2023-01-30T16:26:00.828Z,98733.38
2023-01-30T16:28:27.644Z,98736.34
2023-01-30T16:30:54.445Z,98736.03
2023-01-30T16:33:20.973Z,98736.97
2023-01-30T16:35:49.785Z,98754.31
2023-01-30T16:38:17.313Z,98739.47
2023-01-30T16:40:44.603Z,98745.63
2023-01-30T16:43:11.028Z,98739.63
2023-01-30T16:45:37.531Z,98760.41
2023-01-30T16:48:05.795Z,98761.63
2023-01-30T16:50:32.752Z,98761.56
2023-01-30T16:52:59.348Z,98750.53
2023-01-30T16:55:26.213Z,98752.31
2023-01-30T16:57:54.429Z,98746.56
2023-01-30T17:00:21.515Z,98739.72
2023-01-30T17:02:48.854Z,98750.91
2023-01-30T17:05:15.440Z,98758.63
2023-01-30T17:07:42.209Z,98754.59
2023-01-30T17:10:09.101Z,98756.06
2023-01-30T17:12:36.921Z,98756.56
2023-01-30T17:15:03.563Z,98767.66
2023-01-30T17:17:30.404Z,98763.53
2023-01-30T17:19:57.458Z,98756.44
2023-01-30T17:22:23.970Z,98745.97
2023-01-30T17:24:50.834Z,98753.88
2023-01-30T17:27:17.402Z,98751.94
2023-01-30T17:29:44.253Z,98749.53
2023-01-30T17:32:10.853Z,98755.69
2023-01-30T17:34:37.377Z,98765.66
2023-01-30T17:37:04.211Z,98752.84
2023-01-30T17:39:32.468Z,98744.22
2023-01-30T17:41:59.606Z,98746.69
2023-01-30T17:44:26.164Z,98766.84
2023-01-30T17:46:52.995Z,98750.25
2023-01-30T17:49:20.851Z,98742.41
2023-01-30T17:51:49.953Z,98751.66
2023-01-30T17:54:16.568Z,98755.13
2023-01-30T17:56:43.848Z,98766.03
2023-01-30T17:59:11.613Z,98767.38
2023-01-30T18:01:38.781Z,98769.84
2023-01-30T18:04:07.127Z,98761.91
2023-01-30T18:06:34.010Z,98787.69
2023-01-30T18:09:01.020Z,98776.78
2023-01-30T18:11:28.903Z,98779.69
2023-01-30T18:13:55.678Z,98790.19
2023-01-30T18:16:22.628Z,98773.34
2023-01-30T18:18:49.804Z,98772.09
2023-01-30T18:21:16.682Z,98764.25
2023-01-30T18:23:43.611Z,98786.47
2023-01-30T18:26:11.762Z,98761.47
2023-01-30T18:28:39.468Z,98770.69
2023-01-30T18:31:07.467Z,98783.53
2023-01-30T18:33:34.425Z,98776.09
2023-01-30T18:36:06.303Z,98765.47
2023-01-30T18:38:37.174Z,98781.09
2023-01-30T18:41:04.164Z,98774.47
2023-01-30T18:43:31.096Z,98801.47
2023-01-30T18:45:58.009Z,98771.88
2023-01-30T18:48:25.030Z,98763.47
2023-01-30T18:50:52.213Z,98766.91
2023-01-30T18:53:21.535Z,98767.09
2023-01-30T18:55:49.258Z,98759.31
2023-01-30T18:58:16.623Z,98751.16
2023-01-30T19:00:43.438Z,98761.00
2023-01-30T19:03:10.009Z,98787.59
2023-01-30T19:05:36.836Z,98768.50
2023-01-30T19:08:04.610Z,98780.97
2023-01-30T19:10:31.656Z,98784.16
2023-01-30T19:12:58.954Z,98777.97
2023-01-30T19:15:26.059Z,98778.03
2023-01-30T19:17:53.048Z,98780.72
2023-01-30T19:20:23.493Z,98789.72
2023-01-30T19:22:51.118Z,98790.13
2023-01-30T19:25:19.378Z,98786.63
2023-01-30T19:27:46.484Z,98772.50
2023-01-30T19:30:13.805Z,98779.88
2023-01-30T19:32:41.270Z,98779.13
2023-01-30T19:35:10.778Z,98758.31
2023-01-30T19:37:38.614Z,98781.69
2023-01-30T19:40:05.854Z,98784.25
2023-01-30T19:42:32.867Z,98784.59
2023-01-30T19:45:00.408Z,98773.22
2023-01-30T19:47:28.455Z,98779.22
2023-01-30T19:49:56.386Z,98779.19
2023-01-30T19:52:23.538Z,98785.88
2023-01-30T19:54:50.891Z,98773.38
2023-01-30T19:57:18.056Z,98790.66
2023-01-30T19:59:45.801Z,98781.91
2023-01-30T20:02:13.842Z,98784.63
2023-01-30T20:04:42.678Z,98800.19
2023-01-30T20:07:10.179Z,98795.16
2023-01-30T20:09:37.391Z,98802.97
2023-01-30T20:12:04.455Z,98808.22
2023-01-30T20:14:33.981Z,98785.56
2023-01-30T20:17:01.921Z,98794.69
2023-01-30T20:19:30.809Z,98792.69
2023-01-30T20:21:58.401Z,98797.94
2023-01-30T20:24:25.330Z,98797.81
2023-01-30T20:26:52.342Z,98790.47
2023-01-30T20:29:19.406Z,98791.44
2023-01-30T20:31:46.481Z,98792.22
2023-01-30T20:34:13.467Z,98808.41
2023-01-30T20:36:40.046Z,98805.00
2023-01-30T20:39:07.741Z,98802.44
2023-01-30T20:41:34.802Z,98805.78
2023-01-30T20:44:01.743Z,98794.50
2023-01-30T20:46:28.786Z,98810.59
2023-01-30T20:48:55.722Z,98803.25
2023-01-30T20:51:22.558Z,98799.47
2023-01-30T20:53:50.768Z,98794.91
2023-01-30T20:56:17.485Z,98823.25
2023-01-30T20:58:46.213Z,98799.03
2023-01-30T21:01:13.450Z,98794.25
2023-01-30T21:03:40.814Z,98821.78
2023-01-30T21:06:07.890Z,98811.53
2023-01-30T21:08:35.141Z,98819.84
2023-01-30T21:11:02.421Z,98828.88
2023-01-30T21:13:29.648Z,98830.16
2023-01-30T21:15:56.214Z,98822.31
2023-01-30T21:18:22.668Z,98821.16
2023-01-30T21:20:49.298Z,98820.19
2023-01-30T21:23:17.175Z,98831.69
2023-01-30T21:25:43.855Z,98835.00
2023-01-30T21:28:10.406Z,98832.81
2023-01-30T21:30:38.241Z,98840.66
2023-01-30T21:33:05.685Z,98833.25
2023-01-30T21:35:32.810Z,98826.41
2023-01-30T21:37:59.648Z,98808.34
2023-01-30T21:40:26.396Z,98810.88
2023-01-30T21:42:53.320Z,98838.75
2023-01-30T21:45:20.206Z,98822.97
2023-01-30T21:47:47.617Z,98815.84
2023-01-30T21:50:14.504Z,98828.50
2023-01-30T21:52:41.272Z,98820.44
2023-01-30T21:55:07.743Z,98805.47
2023-01-30T21:57:34.439Z,98810.22
2023-01-30T22:00:02.051Z,98815.72
2023-01-30T22:02:28.744Z,98818.69
2023-01-30T22:04:55.854Z,98813.56
2023-01-30T22:07:22.954Z,98817.50
2023-01-30T22:09:49.515Z,98823.53
2023-01-30T22:12:16.617Z,98832.16
2023-01-30T22:14:43.306Z,98853.03
2023-01-30T22:17:09.768Z,98844.75
2023-01-30T22:19:36.746Z,98828.88
2023-01-30T22:22:03.192Z,98834.56
2023-01-30T22:24:29.765Z,98838.53
2023-01-30T22:26:56.237Z,98807.72
2023-01-30T22:29:22.793Z,98840.13
2023-01-30T22:31:49.251Z,98831.72
2023-01-30T22:34:15.722Z,98867.06
2023-01-30T22:36:42.661Z,98856.41
2023-01-30T22:39:09.133Z,98850.59
2023-01-30T22:41:38.599Z,98854.16
2023-01-30T22:44:05.490Z,98852.38
2023-01-30T22:46:34.119Z,98857.66
2023-01-30T22:49:01.044Z,98872.25
2023-01-30T22:51:28.159Z,98869.47
2023-01-30T22:53:54.574Z,98879.16
2023-01-30T22:56:21.021Z,98864.09
2023-01-30T22:58:48.372Z,98868.25
2023-01-30T23:01:14.957Z,98864.72
2023-01-30T23:03:43.372Z,98866.06
2023-01-30T23:06:10.040Z,98871.44
2023-01-30T23:08:36.867Z,98881.59
2023-01-30T23:11:03.291Z,98889.13
2023-01-30T23:13:29.729Z,98893.25
2023-01-30T23:15:56.345Z,98898.38
2023-01-30T23:18:23.066Z,98880.53
2023-01-30T23:20:49.560Z,98883.84
2023-01-30T23:23:16.068Z,98872.22
2023-01-30T23:25:42.515Z,98875.72
2023-01-30T23:28:08.995Z,98872.44
2023-01-30T23:30:35.507Z,98877.69
2023-01-30T23:33:01.983Z,98898.13
2023-01-30T23:35:28.537Z,98897.91
2023-01-30T23:37:55.714Z,98898.09
2023-01-30T23:40:24.927Z,98897.19
2023-01-30T23:42:51.336Z,98909.91
2023-01-30T23:45:18.177Z,98914.31
2023-01-30T23:47:44.934Z,98920.88
2023-01-30T23:50:11.594Z,98898.50
2023-01-30T23:52:38.111Z,98920.19
2023-01-30T23:55:05.345Z,98925.47
2023-01-30T23:57:31.792Z,98920.47
2023-01-30T23:59:58.420Z,98916.81
